.
WxDataArchive / Data Records for 2007-05-25
2007-05-24 May 2007 2007-05-26

Data Records for Friday, 25 May 2007

Time	Temp	Chill	HIndex	Humid	Dewpt	 Wind 	HiWind	WindDir	Rain 	Barom 
-----	----	-----	------	-----	-----	------	------	-------	-----	----- 
00:00	71.6	71.6	71.6	61	57.4	0	0	---	0.00	30.124 
00:05	71.5	71.5	71.5	61	57.3	0	0	---	0.00	30.124 
00:10	71.3	71.3	71.3	62	57.6	0	2	270	0.00	30.124 
00:15	71.5	71.5	71.5	62	57.8	0	2	270	0.00	30.124 
00:20	71.5	71.5	71.5	62	57.8	0	1	270	0.00	30.125 
00:25	71.3	71.3	71.3	62	57.6	0	2	270	0.00	30.124 
00:30	71.5	71.5	71.5	62	57.8	1	2	270	0.00	30.123 
00:35	71.5	71.5	71.5	62	57.8	1	2	270	0.00	30.124 
00:40	71.5	71.5	71.5	62	57.8	0	3	270	0.00	30.124 
00:45	71.3	71.3	71.3	62	57.6	0	2	270	0.00	30.122 
00:50	71.3	71.3	71.3	62	57.6	0	2	270	0.00	30.123 
00:55	71.1	71.1	71.1	63	57.9	0	2	270	0.00	30.123 
01:00	71.3	71.3	71.3	63	58.0	1	3	270	0.00	30.122 
01:05	71.3	71.3	71.3	63	58.0	0	3	248	0.00	30.123 
01:10	71.3	71.3	71.3	63	58.0	0	2	248	0.00	30.123 
01:15	71.3	71.3	71.3	63	58.0	0	3	248	0.00	30.123 
01:20	71.1	71.1	71.1	63	57.9	0	2	248	0.00	30.122 
01:25	71.3	71.3	71.3	63	58.0	1	3	248	0.00	30.122 
01:30	71.1	71.1	71.1	64	58.3	0	2	248	0.00	30.121 
01:35	71.3	71.3	71.3	63	58.0	1	3	248	0.00	30.122 
01:40	71.3	71.3	71.3	64	58.5	0	1	248	0.00	30.121 
01:45	71.3	71.3	71.3	64	58.5	0	2	248	0.00	30.121 
01:50	71.3	71.3	71.3	63	58.0	0	3	248	0.00	30.121 
01:55	71.5	71.5	71.5	63	58.2	0	3	248	0.00	30.118 
02:00	71.5	71.5	71.5	63	58.2	1	3	248	0.00	30.114 
02:05	71.5	71.5	71.5	63	58.2	1	3	248	0.00	30.114 
02:10	71.6	71.6	71.6	63	58.3	1	5	248	0.00	30.116 
02:15	71.5	71.5	71.5	63	58.2	1	3	248	0.00	30.113 
02:20	71.5	71.5	71.5	63	58.2	0	1	248	0.00	30.115 
02:25	71.3	71.3	71.3	64	58.5	1	3	248	0.00	30.115 
02:30	71.1	71.1	71.1	64	58.3	0	1	225	0.00	30.114 
02:35	70.9	70.9	70.9	64	58.1	0	3	225	0.00	30.115 
02:40	70.6	70.6	70.6	65	58.2	0	1	225	0.00	30.114 
02:45	70.3	70.3	70.3	66	58.4	0	1	225	0.00	30.113 
02:50	70.1	70.1	70.1	66	58.2	0	2	225	0.00	30.113 
02:55	69.9	69.9	69.9	67	58.4	0	2	248	0.00	30.113 
03:00	69.9	69.9	69.9	67	58.4	0	2	248	0.00	30.112 
03:05	69.8	69.8	69.8	67	58.3	0	2	248	0.00	30.113 
03:10	69.8	69.8	69.8	67	58.3	0	2	248	0.00	30.114 
03:15	69.8	69.8	69.8	67	58.3	1	3	248	0.00	30.115 
03:20	69.6	69.6	69.6	67	58.1	0	3	270	0.00	30.116 
03:25	69.6	69.6	69.6	67	58.1	0	2	248	0.00	30.118 
03:30	69.6	69.6	69.6	67	58.1	0	2	248	0.00	30.117 
03:35	69.6	69.6	69.6	67	58.1	0	3	248	0.00	30.117 
03:40	69.4	69.4	69.4	67	58.0	0	2	248	0.00	30.121 
03:45	69.4	69.4	69.4	67	58.0	0	3	248	0.00	30.121 
03:50	69.6	69.6	69.6	67	58.1	0	3	248	0.00	30.119 
03:55	69.6	69.6	69.6	67	58.1	1	3	248	0.00	30.119 
04:00	69.6	69.6	69.6	67	58.1	0	3	248	0.00	30.119 
04:05	69.6	69.6	69.6	67	58.1	1	3	248	0.00	30.119 
04:10	69.6	69.6	69.6	67	58.1	1	3	270	0.00	30.119 
04:15	69.8	69.8	69.8	67	58.3	0	2	270	0.00	30.120 
04:20	69.6	69.6	69.6	67	58.1	0	2	248	0.00	30.120 
04:25	69.4	69.4	69.4	67	58.0	0	2	270	0.00	30.122 
04:30	69.4	69.4	69.4	68	58.4	1	2	270	0.00	30.134 
04:35	69.4	69.4	69.4	68	58.4	1	3	270	0.00	30.138 
04:40	69.4	69.4	69.4	68	58.4	1	3	315	0.00	30.132 
04:45	69.3	69.3	69.3	68	58.3	0	1	315	0.00	30.133 
04:50	68.9	68.9	68.9	69	58.3	0	1	315	0.00	30.135 
04:55	68.6	68.6	68.6	69	58.0	0	1	315	0.00	30.135 
05:00	68.3	68.3	68.3	70	58.1	0	0	---	0.00	30.135 
05:05	67.9	67.9	67.9	71	58.1	0	0	---	0.00	30.137 
05:10	67.6	67.6	67.6	72	58.2	0	0	---	0.00	30.139 
05:15	67.3	67.3	67.3	73	58.3	0	0	---	0.00	30.140 
05:20	66.9	66.9	66.9	73	58.0	0	0	---	0.00	30.140 
05:25	66.8	66.8	66.8	74	58.2	0	1	315	0.00	30.141 
05:30	66.6	66.6	66.6	74	58.0	0	0	---	0.00	30.141 
05:35	66.4	66.4	66.4	75	58.2	0	0	---	0.00	30.142 
05:40	66.3	66.3	66.3	76	58.5	0	0	---	0.00	30.143 
05:45	66.1	66.1	66.1	76	58.3	0	0	---	0.00	30.145 
05:50	66.3	66.3	66.3	76	58.5	0	0	---	0.00	30.150 
05:55	66.3	66.3	66.3	76	58.5	0	0	---	0.00	30.154 
06:00	66.4	66.4	66.4	76	58.6	0	0	---	0.00	30.155 
06:05	66.8	66.8	66.8	76	59.0	0	0	---	0.00	30.158 
06:10	66.9	66.9	66.9	76	59.1	0	0	---	0.00	30.159 
06:15	67.1	67.1	67.1	76	59.3	0	0	---	0.00	30.160 
06:20	67.3	67.3	67.3	76	59.5	0	0	---	0.00	30.160 
06:25	67.6	67.6	67.6	75	59.4	0	0	---	0.00	30.162 
06:30	67.8	67.8	67.8	74	59.2	0	1	315	0.00	30.166 
06:35	68.1	68.1	68.1	74	59.5	0	1	315	0.00	30.166 
06:40	68.3	68.3	68.3	73	59.3	0	1	315	0.00	30.169 
06:45	68.4	68.4	68.4	74	59.8	0	0	---	0.00	30.168 
06:50	68.8	68.8	68.8	73	59.8	0	1	315	0.00	30.170 
06:55	69.1	69.1	69.1	72	59.7	0	1	315	0.00	30.170 
07:00	69.4	69.4	69.4	71	59.6	0	1	315	0.00	30.170 
07:05	69.8	69.8	69.8	71	60.0	0	2	315	0.00	30.172 
07:10	70.1	70.1	70.1	70	59.8	0	1	315	0.00	30.173 
07:15	70.4	70.4	70.4	70	60.1	0	1	315	0.00	30.172 
07:20	70.8	70.8	70.8	71	60.9	0	1	315	0.00	30.172 
07:25	70.9	70.9	70.9	70	60.6	0	2	315	0.00	30.173 
07:30	71.3	71.3	71.3	70	61.0	1	3	315	0.00	30.173 
07:35	71.5	71.5	71.5	69	60.8	1	3	292	0.00	30.173 
07:40	71.6	71.6	71.6	71	61.7	0	2	292	0.00	30.172 
07:45	72.0	72.0	72.0	70	61.7	1	2	292	0.00	30.173 
07:50	72.3	72.3	72.3	69	61.5	1	3	292	0.00	30.173 
07:55	72.5	72.5	72.5	69	61.7	1	4	270	0.00	30.172 
08:00	72.8	72.8	72.8	69	62.0	1	3	248	0.00	30.172 
08:05	72.7	72.7	72.7	68	61.5	2	4	315	0.00	30.174 
08:10	72.7	72.7	72.7	68	61.5	1	4	292	0.00	30.174 
08:15	73.2	73.2	73.2	68	62.0	1	4	292	0.00	30.174 
08:20	73.5	73.5	73.5	67	61.9	1	3	270	0.00	30.173 
08:25	73.9	73.9	73.9	65	61.4	1	2	270	0.00	30.171 
08:30	74.0	74.0	74.0	65	61.5	1	3	315	0.00	30.172 
08:35	74.7	74.7	74.7	64	61.7	1	3	315	0.00	30.172 
08:40	74.9	74.9	74.9	60	60.1	2	5	292	0.00	30.173 
08:45	74.9	74.9	74.9	60	60.1	2	4	292	0.00	30.174 
08:50	74.9	74.9	74.9	62	61.0	2	4	248	0.00	30.173 
08:55	74.9	74.9	74.9	61	60.5	2	5	270	0.00	30.174 
09:00	74.7	74.7	74.7	61	60.3	2	4	270	0.00	30.173 
09:05	75.1	75.1	77.3	62	61.2	2	5	270	0.00	30.172 
09:10	74.9	74.9	74.9	63	61.4	2	5	270	0.00	30.172 
09:15	74.6	74.6	74.6	64	61.6	2	4	270	0.00	30.171 
09:20	75.1	75.1	77.2	64	62.1	2	3	315	0.00	30.172 
09:25	75.1	75.1	77.3	63	61.6	2	4	248	0.00	30.173 
09:30	74.9	74.9	74.9	65	62.3	2	4	270	0.00	30.174 
09:35	74.2	74.2	74.2	66	62.1	2	4	292	0.00	30.178 
09:40	74.0	74.0	74.0	66	61.9	2	4	270	0.00	30.179 
09:45	74.0	74.0	74.0	66	61.9	1	4	248	0.00	30.178 
09:50	74.2	74.2	74.2	66	62.1	2	5	270	0.00	30.177 
09:55	74.4	74.4	74.4	64	61.4	2	4	270	0.00	30.178 
10:00	74.2	74.2	74.2	64	61.2	2	5	270	0.00	30.176 
10:05	74.2	74.2	74.2	64	61.2	3	7	270	0.00	30.178 
10:10	73.7	73.7	73.7	65	61.2	3	5	270	0.00	30.180 
10:15	73.5	73.5	73.5	67	61.9	2	5	270	0.00	30.186 
10:20	73.5	73.5	73.5	66	61.4	2	5	270	0.00	30.185 
10:25	73.2	73.2	73.2	67	61.6	2	5	315	0.00	30.186 
10:30	73.0	73.0	73.0	67	61.4	2	5	270	0.00	30.186 
10:35	72.8	72.8	72.8	68	61.6	2	6	315	0.00	30.189 
10:40	72.8	72.8	72.8	69	62.0	2	5	292	0.00	30.191 
10:45	72.8	72.8	72.8	69	62.0	1	4	315	0.00	30.192 
10:50	73.0	73.0	73.0	69	62.2	1	4	315	0.00	30.192 
10:55	72.8	72.8	72.8	69	62.0	2	3	248	0.00	30.192 
11:00	72.1	72.1	72.1	70	61.8	2	4	270	0.00	30.192 
11:05	71.8	71.8	71.8	72	62.3	1	3	270	0.00	30.193 
11:10	71.8	71.8	71.8	73	62.7	1	3	270	0.00	30.194 
11:15	72.0	72.0	72.0	72	62.5	1	4	315	0.00	30.194 
11:20	72.3	72.3	72.3	72	62.8	1	2	270	0.00	30.193 
11:25	72.7	72.7	72.7	70	62.3	2	3	248	0.00	30.194 
11:30	73.0	73.0	73.0	69	62.2	2	4	315	0.00	30.194 
11:35	73.0	73.0	73.0	69	62.2	1	3	270	0.00	30.195 
11:40	72.8	72.8	72.8	73	63.6	1	3	338	0.00	30.194 
11:45	72.1	72.1	72.1	74	63.3	1	3	292	0.00	30.197 
11:50	71.6	71.6	71.6	76	63.6	1	3	292	0.00	30.199 
11:55	70.9	70.9	70.9	77	63.3	1	3	315	0.00	30.202 
12:00	70.4	70.4	70.4	78	63.2	1	3	292	0.00	30.199 
12:05	70.3	70.3	70.3	79	63.5	0	2	292	0.00	30.198 
12:10	70.1	70.1	70.1	78	62.9	0	2	292	0.00	30.197 
12:15	69.9	69.9	69.9	79	63.1	1	2	292	0.00	30.196 
12:20	69.9	69.9	69.9	80	63.4	0	1	292	0.00	30.197 
12:25	69.9	69.9	69.9	80	63.4	0	1	292	0.00	30.196 
12:30	69.9	69.9	69.9	80	63.4	1	3	270	0.00	30.196 
12:35	69.8	69.8	69.8	80	63.3	0	2	270	0.00	30.194 
12:40	69.8	69.8	69.8	81	63.7	0	1	270	0.00	30.188 
12:45	70.1	70.1	70.1	81	64.0	0	2	270	0.00	30.185 
12:50	70.6	70.6	70.6	80	64.1	0	2	270	0.00	30.184 
12:55	71.1	71.1	71.1	79	64.2	0	2	270	0.00	30.180 
13:00	71.3	71.3	71.3	77	63.7	0	2	270	0.00	30.179 
13:05	71.5	71.5	71.5	77	63.9	0	2	270	0.00	30.175 
13:10	71.6	71.6	71.6	75	63.2	1	3	248	0.00	30.175 
13:15	71.8	71.8	71.8	75	63.4	1	3	270	0.00	30.174 
13:20	72.3	72.3	72.3	76	64.3	0	2	270	0.00	30.168 
13:25	72.8	72.8	72.8	73	63.6	1	3	270	0.00	30.164 
13:30	73.5	73.5	73.5	74	64.7	1	2	270	0.00	30.163 
13:35	73.9	73.9	73.9	72	64.3	1	3	270	0.00	30.161 
13:40	74.0	74.0	74.0	70	63.6	1	3	270	0.00	30.161 
13:45	74.2	74.2	74.2	69	63.4	1	4	270	0.00	30.161 
13:50	74.7	74.7	74.7	68	63.4	1	3	225	0.00	30.160 
13:55	75.1	75.1	77.1	66	62.9	1	5	270	0.00	30.160 
14:00	75.4	75.4	77.3	67	63.7	2	5	292	0.00	30.158 
14:05	75.4	75.4	77.4	65	62.8	2	4	315	0.00	30.161 
14:10	75.3	75.3	77.3	65	62.7	1	4	270	0.00	30.162 
14:15	75.1	75.1	77.1	65	62.5	2	3	270	0.00	30.163 
14:20	75.1	75.1	77.1	66	62.9	1	3	292	0.00	30.163 
14:25	74.7	74.7	74.7	65	62.1	2	4	292	0.00	30.164 
14:30	74.4	74.4	74.4	65	61.8	1	3	315	0.00	30.163 
14:35	74.2	74.2	74.2	67	62.5	1	3	248	0.00	30.163 
14:40	74.0	74.0	74.0	68	62.8	1	2	315	0.00	30.164 
14:45	74.2	74.2	74.2	67	62.5	1	5	315	0.00	30.162 
14:50	74.0	74.0	74.0	67	62.3	1	4	292	0.00	30.162 
14:55	73.7	73.7	73.7	66	61.6	1	4	292	0.00	30.161 
15:00	73.0	73.0	73.0	68	61.8	1	4	338	0.00	30.161 
15:05	73.0	73.0	73.0	69	62.2	1	3	270	0.00	30.162 
15:10	73.0	73.0	73.0	70	62.6	1	4	270	0.00	30.160 
15:15	73.2	73.2	73.2	70	62.8	0	2	270	0.00	30.156 
15:20	73.2	73.2	73.2	69	62.4	1	3	0	0.00	30.155 
15:25	73.2	73.2	73.2	70	62.8	1	2	315	0.00	30.156 
15:30	73.2	73.2	73.2	70	62.8	1	2	315	0.00	30.153 
15:35	73.2	73.2	73.2	70	62.8	0	2	315	0.00	30.152 
15:40	73.2	73.2	73.2	68	62.0	0	3	292	0.00	30.151 
15:45	73.3	73.3	73.3	69	62.5	0	2	292	0.00	30.152 
15:50	73.3	73.3	73.3	68	62.1	1	4	270	0.00	30.153 
15:55	73.0	73.0	73.0	68	61.8	1	3	292	0.00	30.151 
16:00	72.5	72.5	72.5	69	61.7	1	3	292	0.00	30.150 
16:05	72.0	72.0	72.0	70	61.7	1	2	292	0.00	30.151 
16:10	71.8	71.8	71.8	72	62.3	0	1	292	0.00	30.151 
16:15	71.5	71.5	71.5	70	61.2	1	3	315	0.00	30.151 
16:20	71.5	71.5	71.5	72	62.0	0	3	315	0.00	30.152 
16:25	71.5	71.5	71.5	72	62.0	0	3	0	0.00	30.151 
16:30	71.5	71.5	71.5	71	61.6	0	2	315	0.00	30.151 
16:35	71.3	71.3	71.3	71	61.4	1	2	315	0.00	30.153 
16:40	71.3	71.3	71.3	72	61.8	0	2	315	0.00	30.156 
16:45	71.5	71.5	71.5	72	62.0	0	2	315	0.00	30.155 
16:50	71.8	71.8	71.8	71	61.9	1	2	315	0.00	30.151 
16:55	71.8	71.8	71.8	71	61.9	0	1	270	0.00	30.150 
17:00	72.3	72.3	72.3	71	62.4	0	2	270	0.00	30.150 
17:05	72.3	72.3	72.3	69	61.5	1	2	270	0.00	30.151 
17:10	72.0	72.0	72.0	69	61.3	0	2	292	0.00	30.150 
17:15	72.0	72.0	72.0	70	61.7	0	1	292	0.00	30.150 
17:20	71.8	71.8	71.8	70	61.5	0	2	0	0.00	30.149 
17:25	71.6	71.6	71.6	70	61.3	0	2	338	0.00	30.149 
17:30	71.5	71.5	71.5	70	61.2	0	2	315	0.00	30.143 
17:35	72.0	72.0	72.0	72	62.5	0	3	315	0.00	30.140 
17:40	72.3	72.3	72.3	70	62.0	0	2	315	0.00	30.144 
17:45	72.1	72.1	72.1	69	61.4	1	2	315	0.00	30.144 
17:50	72.0	72.0	72.0	70	61.7	1	3	315	0.00	30.144 
17:55	71.8	71.8	71.8	70	61.5	0	1	248	0.00	30.142 
18:00	71.5	71.5	71.5	71	61.6	0	1	270	0.00	30.142 
18:05	71.1	71.1	71.1	70	60.8	0	2	270	0.00	30.138 
18:10	70.8	70.8	70.8	71	60.9	0	1	270	0.00	30.136 
18:15	70.8	70.8	70.8	72	61.3	0	2	270	0.00	30.136 
18:20	70.6	70.6	70.6	71	60.7	0	2	292	0.00	30.136 
18:25	70.4	70.4	70.4	71	60.5	0	3	292	0.00	30.135 
18:30	70.1	70.1	70.1	71	60.2	0	1	292	0.00	30.138 
18:35	69.9	69.9	69.9	72	60.4	0	1	292	0.00	30.137 
18:40	69.6	69.6	69.6	73	60.6	0	2	292	0.00	30.138 
18:45	69.4	69.4	69.4	73	60.4	0	1	292	0.00	30.139 
18:50	69.1	69.1	69.1	74	60.5	0	1	292	0.00	30.143 
18:55	69.1	69.1	69.1	74	60.5	0	1	292	0.00	30.146 
19:00	68.9	68.9	68.9	73	59.9	0	1	292	0.00	30.149 
19:05	68.8	68.8	68.8	73	59.8	0	1	292	0.00	30.147 
19:10	68.6	68.6	68.6	74	60.0	0	1	292	0.00	30.148 
19:15	68.3	68.3	68.3	74	59.7	0	1	292	0.00	30.151 
19:20	67.9	67.9	67.9	75	59.7	0	1	292	0.00	30.151 
19:25	67.6	67.6	67.6	75	59.4	0	1	292	0.00	30.153 
19:30	67.4	67.4	67.4	76	59.6	0	1	292	0.00	30.153 
19:35	67.3	67.3	67.3	76	59.5	0	0	---	0.00	30.154 
19:40	67.1	67.1	67.1	76	59.3	0	1	292	0.00	30.153 
19:45	66.9	66.9	66.9	76	59.1	0	1	292	0.00	30.154 
19:50	66.8	66.8	66.8	77	59.3	0	0	---	0.00	30.157 
19:55	66.6	66.6	66.6	77	59.2	0	0	---	0.00	30.157 
20:00	66.6	66.6	66.6	77	59.2	0	0	---	0.00	30.156 
20:05	66.4	66.4	66.4	77	59.0	0	0	---	0.00	30.153 
20:10	66.3	66.3	66.3	77	58.9	0	0	---	0.00	30.153 
20:15	66.1	66.1	66.1	78	59.0	0	0	---	0.00	30.153 
20:20	66.0	66.0	66.0	78	58.9	0	0	---	0.00	30.151 
20:25	66.0	66.0	66.0	78	58.9	0	0	---	0.00	30.153 
20:30	65.8	65.8	65.8	79	59.1	0	0	---	0.00	30.152 
20:35	65.6	65.6	65.6	79	58.9	0	0	---	0.00	30.154 
20:40	65.6	65.6	65.6	79	58.9	0	0	---	0.00	30.152 
20:45	65.5	65.5	65.5	79	58.8	0	0	---	0.00	30.154 
20:50	65.5	65.5	65.5	80	59.2	0	0	---	0.00	30.154 
20:55	65.3	65.3	65.3	80	59.0	0	0	---	0.00	30.154 
21:00	65.3	65.3	65.3	80	59.0	0	1	292	0.00	30.157 
21:05	65.3	65.3	65.3	80	59.0	0	0	---	0.00	30.158 
21:10	65.3	65.3	65.3	80	59.0	0	0	---	0.00	30.157 
21:15	65.3	65.3	65.3	81	59.3	0	1	292	0.00	30.156 
21:20	65.3	65.3	65.3	81	59.3	0	1	292	0.00	30.154 
21:25	65.2	65.2	65.2	81	59.2	0	0	---	0.00	30.155 
21:30	65.2	65.2	65.2	81	59.2	0	0	---	0.00	30.156 
21:35	65.0	65.0	65.0	81	59.0	0	0	---	0.00	30.157 
21:40	64.8	64.8	64.8	82	59.2	0	0	---	0.00	30.161 
21:45	64.8	64.8	64.8	82	59.2	0	0	---	0.00	30.162 
21:50	64.7	64.7	64.7	82	59.1	0	0	---	0.00	30.164 
21:55	64.7	64.7	64.7	83	59.4	0	0	---	0.00	30.167 
22:00	64.7	64.7	64.7	83	59.4	0	0	---	0.00	30.165 
22:05	64.7	64.7	64.7	83	59.4	0	0	---	0.00	30.168 
22:10	64.7	64.7	64.7	83	59.4	0	0	---	0.00	30.169 
22:15	64.7	64.7	64.7	83	59.4	0	0	---	0.00	30.169 
22:20	64.7	64.7	64.7	83	59.4	0	0	---	0.00	30.170 
22:25	64.8	64.8	64.8	82	59.2	0	1	292	0.00	30.169 
22:30	65.0	65.0	65.0	82	59.4	0	0	---	0.00	30.169 
22:35	65.0	65.0	65.0	82	59.4	0	1	292	0.00	30.168 
22:40	64.8	64.8	64.8	82	59.2	0	0	---	0.00	30.169 
22:45	64.7	64.7	64.7	82	59.1	0	0	---	0.00	30.168 
22:50	64.7	64.7	64.7	82	59.1	0	0	---	0.00	30.167 
22:55	64.5	64.5	64.5	83	59.2	0	0	---	0.00	30.166 
23:00	64.5	64.5	64.5	83	59.2	0	0	---	0.00	30.167 
23:05	64.3	64.3	64.3	83	59.0	0	0	---	0.00	30.169 
23:10	64.2	64.2	64.2	84	59.3	0	0	---	0.00	30.166 
23:15	64.0	64.0	64.0	84	59.1	0	0	---	0.00	30.163 
23:20	63.9	63.9	63.9	84	59.0	0	0	---	0.00	30.159 
23:25	63.9	63.9	63.9	85	59.3	0	0	---	0.00	30.160 
23:30	63.7	63.7	63.7	85	59.1	0	0	---	0.00	30.158 
23:35	63.7	63.7	63.7	85	59.1	0	0	---	0.00	30.156 
23:40	63.5	63.5	63.5	86	59.2	0	0	---	0.00	30.155 
23:45	63.5	63.5	63.5	86	59.2	0	0	---	0.00	30.154 
23:50	63.4	63.4	63.4	86	59.1	0	0	---	0.00	30.155 
23:55	63.2	63.2	63.2	86	58.9	0	0	---	0.00	30.153 

CoCoRaHS
IN-AL-39
A2 Web Hosting
Creative Commons License
GoDaddy
Look for:

loaded 2017-12-12 01:57:31 • last modified 2010-11-18 10:43:29
Privacy PolicyDisclaimer
• wx.awcolley.com is powered by PmWiki v.2002016 •
• all content (unless otherwise noted) © 2017 A W Colley